This is the latest recevied weather packets stored in our database for station/object KC0MWM-2. If no packets are shown the sender has not sent any weather packets the latest 10 day(s).
| Time | Temp. | Humidity | Pressure | Rain* | Wind** | Luminosity | Snow |
|---|---|---|---|---|---|---|---|
| 1777656977 | 13.89° C | 44% | 1021 hPa | 0 mm | - | - | - |
| 1777654576 | 12.78° C | 48% | 1021 hPa | 0 mm | - | - | - |
| 1777643176 | 6.67° C | 73% | 1021.2 hPa | 0 mm | - | - | - |
| 1777642596 | 6.11° C | 75% | 1021.3 hPa | 0 mm | - | - | - |
| 1777641976 | 5.56° C | 76% | 1021.2 hPa | 0 mm | - | - | - |
| 1777639596 | 3.89° C | 77% | 1020.8 hPa | 0 mm | - | - | - |
| 1777637196 | 2.78° C | 80% | 1020.4 hPa | 0 mm | - | - | - |
| 1777632976 | 2.22° C | 84% | 1020.2 hPa | 0 mm | - | - | - |
| 1777631776 | 2.78° C | 84% | 1020.2 hPa | 0 mm | - | - | - |
| 1777630576 | 2.78° C | 83% | 1019.9 hPa | 0 mm | - | - | - |
| 1777629975 | 2.78° C | 83% | 1019.9 hPa | 0 mm | - | - | - |
| 1777628776 | 2.78° C | 83% | 1020 hPa | 0 mm | - | - | - |
| 1777628175 | 3.33° C | 82% | 1019.9 hPa | 0 mm | - | - | - |
| 1777625175 | 3.89° C | 80% | 1019.9 hPa | 0 mm | - | - | - |
| 1777623995 | 3.89° C | 80% | 1020 hPa | 0 mm | - | - | - |
| 1777621577 | 5° C | 76% | 1020.4 hPa | 0 mm | - | - | - |
| 1777618577 | 5° C | 76% | 1020.6 hPa | 0 mm | - | - | - |
| 1777617977 | 5.56° C | 76% | 1020.7 hPa | 0 mm | - | - | - |
| 1777615577 | 5.56° C | 76% | 1021 hPa | 0 mm | - | - | - |
| 1777613177 | 5.56° C | 74% | 1020.9 hPa | 0 mm | - | - | - |
| 1777608976 | 5° C | 73% | 1020.5 hPa | 0 mm | - | - | - |
| 1777608376 | 5° C | 72% | 1020.6 hPa | 0 mm | - | - | - |
| 1777606576 | 5.56° C | 69% | 1020.9 hPa | 0 mm | - | - | - |
| 1777605976 | 5.56° C | 68% | 1020.9 hPa | 0 mm | - | - | - |
| 1777601775 | 8.89° C | 59% | 1020.4 hPa | 0 mm | - | - | - |
* Rain latest hour (hover to see other rain measurements)
** Current wind speed in m/s (hover to see current wind gust speed)